Time;durP1;ratioP1;P1;durP2;ratioP2;P2;SDS_P1;SDS_P2;PMS_P1;PMS_P2;Temp;Humidity;BMP_temperature;BMP_pressure;BME280_temperature;BME280_humidity;BME280_pressure;Samples;Min_cycle;Max_cycle;Signal;HPM_P1;HPM_P2
2022/01/28 00:00:32;;;;;;;57.80;33.70;;;;;;;4.50;79.12;102156.09;4989562;28;20389;-81
2022/01/28 00:03:09;;;;;;;62.63;35.70;;;;;;;4.27;79.35;102137.72;4989746;28;20129;-83
2022/01/28 00:05:38;;;;;;;71.40;39.90;;;;;;;4.24;79.78;102137.84;4989803;28;20050;-82
2022/01/28 00:08:06;;;;;;;71.40;37.10;;;;;;;4.34;80.28;102149.72;4989460;28;20378;-82
2022/01/28 00:10:34;;;;;;;67.83;36.60;;;;;;;4.16;80.62;102105.75;5004633;28;20447;-81
2022/01/28 00:15:39;;;;;;;65.67;34.67;;;;;;;3.95;80.09;102071.47;5010884;28;20046;-81
2022/01/28 00:36:28;;;;;;;71.97;36.00;;;;;;;4.24;81.09;102107.16;5010892;28;20525;-82
2022/01/28 00:40:22;;;;;;;58.60;35.03;;;;;;;4.39;80.56;102170.59;5012114;28;20054;-82
2022/01/28 00:42:52;;;;;;;63.27;34.07;;;;;;;4.38;80.71;102174.13;5016917;28;20060;-84
2022/01/28 00:45:19;;;;;;;60.73;33.90;;;;;;;4.21;80.12;102148.47;5020688;28;20089;-83
2022/01/28 00:47:47;;;;;;;57.30;34.20;;;;;;;4.27;79.96;102158.75;5018994;28;20074;-82
2022/01/28 00:50:15;;;;;;;56.03;32.93;;;;;;;4.27;80.52;102170.16;5012294;28;20041;-83
2022/01/28 00:52:42;;;;;;;53.47;33.10;;;;;;;4.16;80.96;102145.16;5009924;28;20057;-84
2022/01/28 00:55:09;;;;;;;61.30;32.80;;;;;;;4.35;80.80;102159.34;5009698;28;20046;-83
2022/01/28 00:57:35;;;;;;;58.03;33.37;;;;;;;3.89;80.66;102084.84;5009193;28;20085;-83
2022/01/28 01:00:05;;;;;;;70.73;34.33;;;;;;;4.31;80.54;102164.78;5009443;28;20125;-83
2022/01/28 01:02:32;;;;;;;65.27;34.30;;;;;;;3.90;80.59;102106.72;5010426;28;20537;-81
2022/01/28 01:04:59;;;;;;;73.30;32.90;;;;;;;4.22;80.18;102150.19;5010592;28;20053;-84
2022/01/28 01:07:25;;;;;;;65.63;31.20;;;;;;;4.32;79.63;102172.59;5009440;28;20085;-83
2022/01/28 01:09:52;;;;;;;67.43;32.03;;;;;;;3.90;79.79;102098.81;5002299;28;20057;-84
2022/01/28 01:12:20;;;;;;;65.07;33.10;;;;;;;4.24;80.25;102169.38;4989571;28;20555;-82
2022/01/28 01:14:47;;;;;;;60.47;32.80;;;;;;;4.25;80.18;102161.47;4973693;28;20499;-82
2022/01/28 01:19:45;;;;;;;61.23;31.40;;;;;;;3.84;81.00;102102.56;4992989;28;20046;-82
2022/01/28 01:22:12;;;;;;;61.10;32.80;;;;;;;3.97;81.43;102124.81;4994579;28;20054;-82
2022/01/28 01:24:48;;;;;;;67.17;33.10;;;;;;;4.24;81.25;102154.47;4992915;28;20064;-84
2022/01/28 01:27:17;;;;;;;62.53;32.77;;;;;;;4.19;80.97;102139.78;4993733;28;20053;-83
2022/01/28 01:29:45;;;;;;;55.40;30.80;;;;;;;4.14;81.01;102131.22;4994200;28;20073;-83
2022/01/28 01:32:17;;;;;;;69.90;29.20;;;;;;;4.13;80.84;102111.13;4992819;28;20047;-84
2022/01/28 01:34:44;;;;;;;69.93;31.85;;;;;;;4.04;80.69;102101.81;4993605;28;20484;-84
2022/01/28 01:37:12;;;;;;;52.47;31.60;;;;;;;3.73;80.55;102062.69;4992717;28;20050;-83
2022/01/28 01:39:41;;;;;;;52.67;30.20;;;;;;;4.10;81.20;102129.63;4992556;28;20137;-82
2022/01/28 01:42:27;;;;;;;68.17;31.53;;;;;;;4.19;80.87;102119.59;4976348;28;20056;-82
2022/01/28 01:53:18;;;;;;;51.23;29.73;;;;;;;3.88;80.01;102072.59;4994399;28;20054;-83
2022/01/28 01:55:46;;;;;;;46.80;29.27;;;;;;;4.16;79.81;102103.97;4976347;28;20072;-82
2022/01/28 01:58:13;;;;;;;53.83;30.27;;;;;;;4.07;79.70;102093.78;4992510;28;20298;-82
2022/01/28 02:00:39;;;;;;;51.40;30.73;;;;;;;3.97;80.44;102102.94;4992747;28;20086;-84
2022/01/28 02:03:06;;;;;;;47.73;29.30;;;;;;;3.40;80.10;101989.50;4972592;28;20137;-84
2022/01/28 02:05:33;;;;;;;47.37;30.17;;;;;;;3.83;80.45;102048.28;4988768;28;20437;-83
2022/01/28 02:08:05;;;;;;;48.93;31.43;;;;;;;3.51;80.53;101995.19;4990165;28;20086;-83
2022/01/28 02:10:35;;;;;;;54.90;32.47;;;;;;;3.77;80.44;102051.16;5002237;28;20050;-84
2022/01/28 02:13:02;;;;;;;44.43;29.60;;;;;;;4.00;80.08;102072.13;5009509;28;20057;-84
2022/01/28 02:15:28;;;;;;;41.93;27.80;;;;;;;3.77;79.68;102023.09;5008435;28;20132;-83
2022/01/28 02:17:58;;;;;;;44.23;27.90;;;;;;;3.78;79.62;102042.34;5009719;28;20076;-83
2022/01/28 02:20:34;;;;;;;43.80;29.10;;;;;;;3.91;79.42;102054.13;5008018;28;20056;-82
2022/01/28 02:23:01;;;;;;;46.37;29.90;;;;;;;4.04;78.85;102071.13;5008138;28;20049;-86
2022/01/28 02:25:31;;;;;;;47.47;28.33;;;;;;;4.03;78.42;102071.19;5009385;28;20057;-84
2022/01/28 02:28:05;;;;;;;48.23;28.57;;;;;;;3.84;78.47;102050.00;5009373;28;20434;-83
2022/01/28 02:30:33;;;;;;;56.03;30.17;;;;;;;3.92;78.52;102058.44;5009039;28;20137;-84
2022/01/28 02:33:15;;;;;;;46.97;29.47;;;;;;;3.71;79.13;102038.22;5008041;28;20068;-83
2022/01/28 02:35:43;;;;;;;49.10;28.88;;;;;;;3.70;79.78;102021.63;5007659;28;20048;-83
2022/01/28 02:38:12;;;;;;;49.07;29.13;;;;;;;3.82;78.67;102036.06;5007646;28;20137;-83
2022/01/28 02:40:41;;;;;;;41.87;28.30;;;;;;;3.74;78.87;102023.22;5007927;28;20045;-83
2022/01/28 02:45:49;;;;;;;39.60;27.23;;;;;;;3.17;77.52;101938.66;5008863;28;20062;-83
2022/01/28 02:48:28;;;;;;;42.43;27.87;;;;;;;3.66;78.11;102045.44;5007891;28;20053;-83
2022/01/28 02:53:29;;;;;;;43.07;27.73;;;;;;;3.46;78.35;102023.38;5009155;28;20068;-84
2022/01/28 02:55:59;;;;;;;45.97;30.40;;;;;;;3.40;78.86;102005.25;5008918;28;20060;-83
2022/01/28 02:58:27;;;;;;;50.43;28.40;;;;;;;3.51;78.37;102016.19;5007545;28;20141;-82
2022/01/28 03:00:56;;;;;;;41.60;28.07;;;;;;;3.42;77.91;102003.38;5007639;28;20045;-83
2022/01/28 03:03:24;;;;;;;50.37;28.33;;;;;;;3.00;78.16;101927.94;5008324;28;20360;-84
2022/01/28 03:05:51;;;;;;;56.43;29.93;;;;;;;3.56;77.75;102019.50;5007252;28;20141;-83
2022/01/28 03:08:22;;;;;;;45.83;28.43;;;;;;;3.50;78.22;102025.00;5007232;28;20050;-81
2022/01/28 03:13:29;;;;;;;52.43;30.13;;;;;;;3.14;78.54;101969.44;5008911;28;20451;-83
2022/01/28 03:16:07;;;;;;;51.67;28.10;;;;;;;3.00;78.43;101957.66;5008358;28;20479;-84
2022/01/28 03:23:59;;;;;;;39.67;26.73;;;;;;;3.24;78.13;102001.44;5008124;28;20054;-83
2022/01/28 03:26:27;;;;;;;40.13;26.60;;;;;;;3.11;78.98;101996.63;5006937;28;20042;-85
2022/01/28 03:28:57;;;;;;;50.17;25.53;;;;;;;3.05;79.00;101978.47;5006761;28;20116;-84
2022/01/28 03:31:23;;;;;;;49.13;26.27;;;;;;;3.30;78.50;102016.97;5008136;28;20137;-84
2022/01/28 03:33:50;;;;;;;37.07;24.83;;;;;;;3.05;78.27;101975.84;5008128;28;20046;-82
2022/01/28 03:36:17;;;;;;;35.77;25.03;;;;;;;3.12;78.66;101995.72;5006771;28;20050;-81
2022/01/28 03:38:47;;;;;;;38.53;25.60;;;;;;;3.25;78.76;102013.66;5007681;28;20131;-84
2022/01/28 03:41:16;;;;;;;33.73;23.00;;;;;;;2.74;78.94;101913.13;5006599;28;20050;-81
2022/01/28 03:43:45;;;;;;;37.57;24.23;;;;;;;3.22;78.82;101991.84;5005886;28;20060;-81
2022/01/28 03:46:13;;;;;;;37.07;25.33;;;;;;;2.92;79.19;101935.25;5006660;28;20111;-85
2022/01/28 03:48:40;;;;;;;32.67;23.73;;;;;;;3.31;78.95;101987.19;5006870;28;20425;-81
2022/01/28 03:51:07;;;;;;;34.97;23.97;;;;;;;3.35;78.56;101973.03;5006761;28;20527;-83
2022/01/28 03:53:34;;;;;;;32.77;23.73;;;;;;;3.37;78.64;101965.94;5008490;28;20049;-85
2022/01/28 03:56:00;;;;;;;39.73;24.73;;;;;;;3.34;79.27;101956.44;5012274;28;20140;-83
2022/01/28 03:58:27;;;;;;;36.73;23.60;;;;;;;3.14;78.98;101920.41;5007385;28;20447;-81
2022/01/28 04:00:55;;;;;;;33.67;23.27;;;;;;;3.22;78.90;101905.25;5006573;28;20049;-84
2022/01/28 04:13:52;;;;;;;26.93;19.93;;;;;;;3.11;78.08;101820.84;4988136;28;20157;-83
2022/01/28 04:17:18;;;;;;;29.23;20.87;;;;;;;3.52;77.51;101896.25;4986708;28;20054;-81
2022/01/28 04:19:13;;;;;;;26.17;19.10;;;;;;;2.68;76.75;101777.00;4987607;28;20362;-82
2022/01/28 04:21:40;;;;;;;25.00;18.87;;;;;;;3.41;77.34;101883.56;4970524;28;20306;-81
2022/01/28 04:24:07;;;;;;;25.30;19.37;;;;;;;2.42;76.94;101718.50;4986758;28;20526;-81
2022/01/28 04:26:34;;;;;;;20.83;16.37;;;;;;;3.46;76.42;101894.72;4986525;28;20054;-81
2022/01/28 04:29:01;;;;;;;24.20;18.50;;;;;;;3.43;76.84;101866.81;4986316;28;20562;-81
2022/01/28 04:31:27;;;;;;;29.63;20.47;;;;;;;3.18;77.19;101843.31;4986268;28;20551;-80
2022/01/28 04:33:55;;;;;;;26.20;19.60;;;;;;;3.01;76.95;101822.09;4985985;28;20400;-81
2022/01/28 04:36:26;;;;;;;31.60;22.50;;;;;;;2.83;77.82;101799.19;4970244;28;20408;-83
2022/01/28 04:39:00;;;;;;;30.10;20.67;;;;;;;3.33;78.09;101891.72;4986274;28;20325;-83
2022/01/28 04:41:58;;;;;;;35.43;22.47;;;;;;;3.40;78.07;101908.09;4987767;28;20074;-83
2022/01/28 04:44:20;;;;;;;39.33;25.90;;;;;;;3.41;77.61;101888.81;4987341;28;20050;-80
2022/01/28 04:46:57;;;;;;;36.83;25.17;;;;;;;3.53;77.87;101921.63;4986206;28;20476;-82
2022/01/28 04:49:37;;;;;;;34.20;24.80;;;;;;;3.38;77.93;101897.66;4986470;28;20050;-83
2022/01/28 05:23:19;;;;;;;19.25;15.07;;;;;;;2.89;77.39;101928.34;4992411;28;20054;-82
2022/01/28 05:27:38;;;;;;;29.10;21.00;;;;;;;2.55;76.87;101907.69;4990830;28;20053;-82
2022/01/28 05:30:05;;;;;;;;;;;;;;;2.99;75.89;101991.81;4991385;28;20421;-81
2022/01/28 05:32:32;;;;;;;34.73;22.93;;;;;;;2.96;75.78;102002.41;4988964;28;20287;-81
2022/01/28 05:34:59;;;;;;;40.27;25.50;;;;;;;2.67;75.52;101941.34;4989172;28;20412;-82
2022/01/28 05:37:25;;;;;;;33.83;24.37;;;;;;;2.88;75.62;102000.06;4989562;28;20120;-82
2022/01/28 05:39:57;;;;;;;57.20;27.88;;;;;;;2.82;75.48;102004.66;4987222;28;20050;-81
2022/01/28 05:42:24;;;;;;;36.83;25.77;;;;;;;2.54;76.05;101974.13;4994483;28;20426;-83
2022/01/28 05:44:50;;;;;;;45.77;25.63;;;;;;;2.65;76.82;102007.88;5008174;28;20060;-82
2022/01/28 05:47:17;;;;;;;38.17;26.60;;;;;;;2.70;76.87;102017.28;5006369;28;20065;-84
2022/01/28 05:49:44;;;;;;;36.13;24.17;;;;;;;2.38;76.15;101915.25;5007032;28;20593;-83
2022/01/28 05:52:11;;;;;;;31.57;24.13;;;;;;;2.72;76.07;101983.16;4990560;28;20148;-85
2022/01/28 05:54:38;;;;;;;29.53;22.90;;;;;;;2.74;76.75;102002.28;5006497;28;20168;-83
2022/01/28 05:57:04;;;;;;;33.67;23.47;;;;;;;2.36;76.75;101954.63;5001683;28;20057;-84
2022/01/28 05:59:31;;;;;;;31.10;21.83;;;;;;;2.69;76.87;102012.06;5006212;28;20050;-83
2022/01/28 06:01:58;;;;;;;28.93;21.07;;;;;;;2.67;76.93;102017.41;4990247;28;20089;-84
2022/01/28 06:04:25;;;;;;;28.97;20.63;;;;;;;2.13;77.51;101914.28;4989966;28;20140;-84
2022/01/28 06:06:52;;;;;;;27.60;20.43;;;;;;;2.82;77.28;102034.38;5007194;28;20050;-83
2022/01/28 06:09:18;;;;;;;32.53;20.97;;;;;;;2.86;78.02;102037.72;5002859;28;20384;-83
2022/01/28 06:11:46;;;;;;;30.27;21.07;;;;;;;2.85;76.93;102001.94;4987133;28;20047;-84
2022/01/28 06:14:12;;;;;;;30.43;22.20;;;;;;;3.14;77.09;102058.66;4987267;28;20336;-81
2022/01/28 06:16:39;;;;;;;31.17;21.13;;;;;;;3.12;77.37;102049.97;4987626;28;20066;-84
2022/01/28 06:19:06;;;;;;;31.93;22.90;;;;;;;3.07;77.23;102005.53;4986876;28;20061;-83
2022/01/28 06:21:32;;;;;;;28.67;21.23;;;;;;;3.13;76.86;102033.31;4988802;28;20518;-82
2022/01/28 06:23:59;;;;;;;34.03;22.00;;;;;;;3.26;77.19;102057.38;5006565;28;20484;-84
2022/01/28 06:26:26;;;;;;;29.83;21.07;;;;;;;3.21;77.50;102044.41;5006215;28;20290;-82
2022/01/28 06:28:53;;;;;;;33.57;23.10;;;;;;;3.35;77.10;102064.91;4989446;28;20111;-81
2022/01/28 06:31:20;;;;;;;37.67;24.57;;;;;;;2.95;77.50;101984.97;5006078;28;20050;-83
2022/01/28 06:33:48;;;;;;;45.17;24.03;;;;;;;3.40;77.85;102076.97;5005802;28;20056;-81
2022/01/28 06:36:16;;;;;;;37.23;24.37;;;;;;;3.30;78.19;102053.72;5007220;28;20079;-82
2022/01/28 06:38:42;;;;;;;40.73;25.63;;;;;;;3.45;77.74;102079.44;5005565;28;20053;-81
2022/01/28 06:41:09;;;;;;;37.57;24.37;;;;;;;3.02;78.17;102028.44;4989544;28;20137;-83
2022/01/28 06:43:38;;;;;;;36.90;24.77;;;;;;;3.47;78.18;102097.75;5005865;28;20140;-82
2022/01/28 06:46:05;;;;;;;34.00;24.17;;;;;;;3.34;78.20;102087.69;5007110;28;20144;-82
2022/01/28 06:48:32;;;;;;;38.13;23.53;;;;;;;3.35;78.10;102088.53;5006866;28;20045;-84
2022/01/28 06:50:59;;;;;;;36.53;22.80;;;;;;;3.55;77.76;102111.47;4988996;28;20148;-84
2022/01/28 06:53:25;;;;;;;38.67;23.60;;;;;;;2.93;78.22;102007.75;4994986;28;20050;-82
2022/01/28 06:55:52;;;;;;;45.00;24.57;;;;;;;3.38;79.04;102107.66;4987456;28;20054;-83
2022/01/28 06:58:18;;;;;;;33.93;23.67;;;;;;;3.40;79.01;102105.84;4986143;28;20052;-83
2022/01/28 07:00:45;;;;;;;38.80;24.87;;;;;;;3.53;78.83;102101.03;4985727;28;20328;-82
2022/01/28 07:03:16;;;;;;;37.43;22.90;;;;;;;3.37;79.14;102081.47;4982541;28;20050;-83
2022/01/28 07:05:43;;;;;;;37.10;24.27;;;;;;;3.41;79.94;102093.56;4965545;28;20065;-83
2022/01/28 07:08:09;;;;;;;34.50;23.30;;;;;;;3.39;80.22;102096.25;4965076;28;20732;-83
2022/01/28 07:10:37;;;;;;;34.67;23.30;;;;;;;3.52;80.49;102122.06;4979315;28;20050;-83
2022/01/28 07:13:04;;;;;;;42.13;22.60;;;;;;;3.56;80.07;102124.53;5002006;28;20130;-82
2022/01/28 07:15:31;;;;;;;36.03;24.37;;;;;;;3.39;80.63;102100.66;4986023;28;20153;-83
2022/01/28 07:18:01;;;;;;;44.03;25.73;;;;;;;3.54;80.17;102105.34;5001362;28;20540;-82
2022/01/28 07:20:29;;;;;;;40.20;24.60;;;;;;;3.51;79.34;102115.13;4986645;28;20065;-83
2022/01/28 07:22:56;;;;;;;47.30;23.33;;;;;;;3.75;79.58;102135.25;5002112;28;20241;-83
2022/01/28 07:25:24;;;;;;;41.03;22.50;;;;;;;3.25;79.68;102084.50;4987053;28;20062;-83
2022/01/28 07:27:51;;;;;;;55.63;22.67;;;;;;;2.88;80.00;102020.19;5001772;28;20060;-81
2022/01/28 07:30:17;;;;;;;39.20;24.30;;;;;;;3.43;80.76;102107.50;5001689;28;20140;-84
2022/01/28 07:32:44;;;;;;;36.67;23.77;;;;;;;3.64;81.57;102180.28;5001610;28;20070;-82
2022/01/28 07:35:12;;;;;;;48.13;25.80;;;;;;;3.68;81.00;102180.19;5001440;28;20050;-85
2022/01/28 07:37:39;;;;;;;49.23;22.73;;;;;;;3.76;80.85;102188.63;5001463;28;20046;-83
2022/01/28 07:40:06;;;;;;;41.53;22.97;;;;;;;3.51;79.58;102144.84;4985105;28;20050;-82
2022/01/28 07:42:36;;;;;;;36.90;23.33;;;;;;;3.62;80.90;102182.13;4985112;28;20050;-82
2022/01/28 07:45:04;;;;;;;47.43;24.00;;;;;;;3.79;80.07;102199.91;5000964;28;20054;-82
2022/01/28 07:47:31;;;;;;;43.90;25.00;;;;;;;3.42;80.56;102159.16;4985082;28;20050;-84
2022/01/28 07:49:57;;;;;;;41.37;24.50;;;;;;;2.89;81.13;102082.22;4986195;28;20054;-85
2022/01/28 07:52:24;;;;;;;42.90;24.03;;;;;;;3.71;81.11;102206.34;5001202;28;20389;-84
2022/01/28 07:54:51;;;;;;;36.37;24.83;;;;;;;3.71;81.16;102208.97;5001031;28;20104;-82
2022/01/28 07:57:17;;;;;;;37.37;24.40;;;;;;;3.34;80.32;102166.44;4986371;28;20050;-84
2022/01/28 07:59:44;;;;;;;35.03;23.93;;;;;;;3.69;81.10;102243.19;4985001;28;20069;-83
2022/01/28 08:02:11;;;;;;;31.70;23.73;;;;;;;3.14;81.55;102140.84;5001055;28;20069;-83
2022/01/28 08:04:39;;;;;;;37.57;22.67;;;;;;;3.50;80.76;102190.41;4984860;28;20138;-83
2022/01/28 08:07:06;;;;;;;35.73;24.53;;;;;;;3.26;80.36;102171.09;5001342;28;20100;-83
2022/01/28 08:09:32;;;;;;;46.67;24.53;;;;;;;3.81;80.76;102262.88;4980942;28;20072;-83
2022/01/28 08:11:59;;;;;;;35.00;23.63;;;;;;;3.90;80.18;102282.75;4981863;28;20488;-84
2022/01/28 08:14:27;;;;;;;36.33;25.57;;;;;;;2.19;80.66;102015.44;4981792;28;20046;-84
2022/01/28 08:16:55;;;;;;;37.47;24.00;;;;;;;3.59;80.29;102255.75;4981325;28;20138;-84
2022/01/28 08:19:22;;;;;;;36.33;23.70;;;;;;;3.21;81.10;102183.50;4983625;28;20062;-84
2022/01/28 08:21:49;;;;;;;31.60;24.53;;;;;;;3.82;80.94;102298.78;4983900;28;20113;-83
2022/01/28 08:24:15;;;;;;;38.57;25.23;;;;;;;3.70;80.97;102275.56;4989686;28;20404;-83
2022/01/28 08:26:42;;;;;;;34.23;24.33;;;;;;;3.88;80.64;102310.84;5000829;28;20464;-83
2022/01/28 08:29:11;;;;;;;30.83;21.97;;;;;;;3.84;80.17;102302.22;5000363;28;20146;-82
2022/01/28 08:31:38;;;;;;;30.90;21.33;;;;;;;4.00;79.83;102328.81;5002064;28;20053;-84
2022/01/28 08:34:05;;;;;;;30.07;22.33;;;;;;;3.80;79.95;102316.34;5001472;28;20089;-85
2022/01/28 08:36:33;;;;;;;33.83;23.43;;;;;;;3.99;80.17;102341.09;5001239;28;20055;-84
2022/01/28 08:39:03;;;;;;;35.17;23.37;;;;;;;4.01;79.65;102335.81;4986269;28;20121;-84
2022/01/28 08:41:32;;;;;;;35.50;23.37;;;;;;;3.94;79.30;102319.38;5001334;28;20347;-84
2022/01/28 08:43:58;;;;;;;37.17;23.60;;;;;;;3.55;79.38;102274.28;5001445;28;20046;-84
2022/01/28 08:46:25;;;;;;;30.63;22.60;;;;;;;3.52;79.44;102283.13;5000900;28;20332;-83
2022/01/28 08:48:52;;;;;;;33.90;23.23;;;;;;;3.38;79.27;102244.19;5001605;28;20042;-83
2022/01/28 08:51:18;;;;;;;35.10;23.93;;;;;;;3.77;79.25;102308.59;4986666;28;20054;-84
2022/01/28 08:53:45;;;;;;;33.63;23.33;;;;;;;4.09;79.68;102374.97;5002622;28;20137;-85
2022/01/28 08:56:12;;;;;;;36.37;24.00;;;;;;;3.93;79.33;102328.19;5002600;28;20054;-83
2022/01/28 08:58:38;;;;;;;34.03;23.40;;;;;;;3.13;79.44;102215.25;5002673;28;20082;-85
2022/01/28 09:01:05;;;;;;;32.37;22.73;;;;;;;3.98;79.68;102364.81;5002032;28;20561;-83
2022/01/28 09:03:33;;;;;;;33.80;22.73;;;;;;;3.92;80.05;102358.00;5001829;28;20061;-85
2022/01/28 09:06:00;;;;;;;27.37;22.57;;;;;;;3.57;79.85;102283.84;5002280;28;20493;-83
2022/01/28 09:08:27;;;;;;;39.90;22.10;;;;;;;4.10;79.76;102372.28;5002187;28;20051;-83
2022/01/28 09:10:59;;;;;;;28.70;21.13;;;;;;;4.19;79.35;102376.38;5002337;28;20050;-83
2022/01/28 09:13:30;;;;;;;31.08;22.88;;;;;;;4.19;78.87;102384.25;4986128;28;20046;-83
2022/01/28 09:15:57;;;;;;;29.13;21.27;;;;;;;4.20;79.22;102397.38;4985769;28;20521;-82
2022/01/28 09:18:25;;;;;;;29.07;20.50;;;;;;;4.26;78.96;102415.56;4986051;28;20061;-83
2022/01/28 09:20:52;;;;;;;29.97;21.27;;;;;;;4.26;78.72;102436.59;4986034;28;20223;-83
2022/01/28 09:23:19;;;;;;;28.63;20.13;;;;;;;4.31;78.91;102431.16;4985858;28;20081;-82
2022/01/28 09:25:46;;;;;;;30.80;20.73;;;;;;;4.14;78.93;102404.59;4985758;28;20093;-85
2022/01/28 09:28:13;;;;;;;31.97;21.37;;;;;;;4.33;79.38;102441.66;4985631;28;20152;-84
2022/01/28 09:30:40;;;;;;;28.10;21.27;;;;;;;4.40;79.09;102451.91;4985740;28;20046;-81
2022/01/28 09:33:07;;;;;;;29.13;21.80;;;;;;;4.48;78.69;102410.41;4985599;28;20411;-82
2022/01/28 09:35:34;;;;;;;31.13;23.13;;;;;;;4.28;77.81;102381.34;4986012;28;20047;-82
2022/01/28 09:38:02;;;;;;;27.10;21.27;;;;;;;4.17;78.38;102344.88;4985403;28;20532;-82
2022/01/28 09:40:29;;;;;;;33.60;23.47;;;;;;;4.72;78.12;102460.47;5001324;28;20065;-83
2022/01/28 09:42:56;;;;;;;30.60;22.10;;;;;;;4.65;77.45;102438.78;4989027;28;20456;-83
2022/01/28 09:45:24;;;;;;;28.10;21.10;;;;;;;4.42;77.27;102402.75;4989042;28;20050;-82
2022/01/28 09:47:53;;;;;;;27.93;22.33;;;;;;;4.92;77.24;102465.03;4989185;28;20097;-82
2022/01/28 09:50:31;;;;;;;29.60;22.43;;;;;;;4.85;77.15;102453.00;4989307;28;20141;-83
2022/01/28 09:52:59;;;;;;;29.57;21.40;;;;;;;4.83;77.12;102452.19;4988880;28;20052;-84
2022/01/28 09:55:26;;;;;;;30.90;22.57;;;;;;;4.79;77.26;102443.56;4990212;28;20042;-83
2022/01/28 09:57:56;;;;;;;28.67;22.47;;;;;;;5.10;76.47;102497.75;4989059;28;20061;-83
2022/01/28 10:00:25;;;;;;;30.13;21.53;;;;;;;5.22;77.11;102496.44;4987865;28;20068;-82
2022/01/28 10:02:56;;;;;;;31.23;21.37;;;;;;;5.25;76.28;102476.13;4987945;28;20077;-83
2022/01/28 10:05:26;;;;;;;31.13;22.35;;;;;;;5.37;76.46;102476.59;4988675;28;20261;-83
2022/01/28 10:08:10;;;;;;;29.90;21.43;;;;;;;5.40;75.39;102484.38;5004963;28;20055;-82
2022/01/28 10:11:08;;;;;;;29.20;20.67;;;;;;;5.38;75.87;102465.13;4972600;28;20055;-84
2022/01/28 10:13:46;;;;;;;27.50;20.80;;;;;;;5.41;75.44;102449.22;4968149;28;20532;-84
2022/01/28 10:16:14;;;;;;;26.27;20.23;;;;;;;5.29;75.46;102400.50;4967424;28;20154;-84
2022/01/28 10:18:50;;;;;;;27.08;21.02;;;;;;;5.50;75.76;102455.00;4968077;28;20090;-84
2022/01/28 10:21:21;;;;;;;29.25;23.08;;;;;;;5.52;75.54;102462.84;4968895;28;20453;-85
2022/01/28 10:24:16;;;;;;;29.67;20.67;;;;;;;5.59;75.56;102451.16;4967125;28;20061;-83
2022/01/28 10:27:05;;;;;;;28.83;20.42;;;;;;;5.68;75.45;102458.72;4967513;28;20051;-85
2022/01/28 10:29:38;;;;;;;27.65;20.75;;;;;;;5.43;75.02;102376.25;4968840;28;20066;-84
2022/01/28 10:32:16;;;;;;;25.52;20.23;;;;;;;5.37;75.07;102379.16;4983206;28;20058;-85
2022/01/28 10:34:50;;;;;;;24.85;20.35;;;;;;;5.94;73.95;102438.38;4967354;28;20117;-85
2022/01/28 10:37:23;;;;;;;22.52;18.98;;;;;;;5.21;73.57;102311.25;4967660;28;20724;-84
2022/01/28 10:39:50;;;;;;;25.88;19.92;;;;;;;6.05;73.15;102438.81;4967018;28;20435;-85
2022/01/28 10:42:33;;;;;;;25.30;21.23;;;;;;;6.09;73.27;102443.06;4967814;28;20047;-84
2022/01/28 10:45:11;;;;;;;26.13;20.48;;;;;;;5.96;73.50;102420.75;4966878;28;20059;-84
2022/01/28 10:47:40;;;;;;;27.88;20.80;;;;;;;5.80;74.00;102386.19;4966854;28;20450;-84
2022/01/28 10:50:29;;;;;;;23.67;20.17;;;;;;;5.55;73.35;102349.44;4966793;28;20153;-85
2022/01/28 10:53:11;;;;;;;27.60;21.13;;;;;;;6.04;73.07;102445.00;4967657;28;20082;-85
2022/01/28 10:55:39;;;;;;;26.02;20.50;;;;;;;6.26;73.48;102467.88;4967789;28;20413;-84
2022/01/28 10:58:14;;;;;;;25.80;19.98;;;;;;;6.38;73.18;102478.78;4966777;28;20066;-81
2022/01/28 11:00:45;;;;;;;23.17;18.52;;;;;;;6.31;72.68;102434.25;4966429;28;20174;-80
2022/01/28 11:03:13;;;;;;;28.55;20.42;;;;;;;6.27;72.72;102411.56;4981142;28;20146;-83
2022/01/28 11:05:41;;;;;;;23.40;19.55;;;;;;;6.81;71.97;102449.72;4981827;28;20050;-82
2022/01/28 11:08:11;;;;;;;27.73;20.85;;;;;;;6.91;71.52;102442.25;4969380;28;20053;-83
2022/01/28 11:10:39;;;;;;;30.05;20.75;;;;;;;7.13;70.85;102453.56;4998891;28;20053;-82
2022/01/28 11:13:07;;;;;;;26.85;22.13;;;;;;;7.26;70.46;102453.88;5004373;28;20133;-83
2022/01/28 11:15:35;;;;;;;28.77;21.75;;;;;;;7.23;70.04;102424.94;4988262;28;20464;-82
2022/01/28 11:18:04;;;;;;;26.27;21.33;;;;;;;7.63;70.23;102452.19;4987332;28;20064;-83
2022/01/28 11:20:37;;;;;;;26.27;21.25;;;;;;;7.81;68.99;102435.41;5003276;28;20042;-83
2022/01/28 11:23:31;;;;;;;28.95;22.70;;;;;;;8.04;68.28;102441.41;5003664;28;20256;-83
2022/01/28 11:26:33;;;;;;;26.98;23.30;;;;;;;8.10;67.27;102417.28;5003240;28;20129;-82
2022/01/28 11:29:02;;;;;;;27.90;21.45;;;;;;;7.95;68.73;102405.66;5003478;28;20134;-81
2022/01/28 11:31:46;;;;;;;27.27;21.50;;;;;;;7.85;68.00;102407.06;4986873;28;20054;-82
2022/01/28 11:34:24;;;;;;;33.67;23.77;;;;;;;7.86;68.84;102398.19;5003561;28;20066;-82
2022/01/28 11:36:56;;;;;;;29.48;24.83;;;;;;;7.75;68.09;102384.66;4987043;28;20074;-83
2022/01/28 11:39:33;;;;;;;35.70;24.45;;;;;;;7.73;68.78;102378.56;5003119;28;20054;-82
2022/01/28 11:42:13;;;;;;;34.15;26.42;;;;;;;7.66;69.03;102356.84;5002639;28;20089;-83
2022/01/28 11:44:50;;;;;;;30.73;26.38;;;;;;;7.70;69.73;102369.00;4987851;28;20464;-82
2022/01/28 11:47:30;;;;;;;30.65;25.67;;;;;;;7.73;69.11;102366.19;4987954;28;20293;-81
2022/01/28 11:50:11;;;;;;;30.85;26.45;;;;;;;7.67;69.90;102380.59;5002996;28;20058;-82
2022/01/28 11:52:47;;;;;;;37.03;27.20;;;;;;;7.61;70.33;102380.03;5002719;28;20046;-82
2022/01/28 11:55:28;;;;;;;32.40;25.33;;;;;;;7.35;70.28;102326.63;4987657;28;20145;-82
2022/01/28 11:57:57;;;;;;;34.20;24.55;;;;;;;7.63;70.16;102383.44;5003023;28;20056;-83
2022/01/28 12:00:27;;;;;;;29.65;24.73;;;;;;;7.78;69.99;102377.41;5002588;28;20050;-83
2022/01/28 12:02:54;;;;;;;30.30;23.30;;;;;;;6.96;69.90;102231.66;5001189;28;20058;-82
2022/01/28 12:05:30;;;;;;;25.25;22.58;;;;;;;7.78;70.90;102361.53;4990487;28;20047;-82
2022/01/28 12:08:00;;;;;;;27.52;22.48;;;;;;;7.57;70.78;102318.50;4995750;28;20504;-83
2022/01/28 12:10:30;;;;;;;25.92;21.83;;;;;;;7.84;70.96;102349.81;4987690;28;20145;-83
2022/01/28 12:15:29;;;;;;;30.23;21.15;;;;;;;7.80;70.63;102306.81;4967210;28;20110;-83
2022/01/28 12:18:04;;;;;;;29.52;21.90;;;;;;;8.06;70.44;102339.88;4981114;28;20113;-83
2022/01/28 12:20:45;;;;;;;26.67;22.40;;;;;;;7.97;70.70;102305.97;4980420;28;20124;-81
2022/01/28 12:23:12;;;;;;;31.38;23.33;;;;;;;8.17;69.91;102341.97;4981346;28;20050;-82
2022/01/28 12:25:39;;;;;;;29.63;23.42;;;;;;;8.17;70.49;102330.53;4981023;28;20051;-82
2022/01/28 12:28:24;;;;;;;30.77;23.67;;;;;;;8.23;70.40;102312.56;4980891;28;20102;-81
2022/01/28 12:31:00;;;;;;;28.25;22.95;;;;;;;8.39;70.81;102306.47;4999157;28;20054;-82
2022/01/28 12:33:33;;;;;;;33.13;24.70;;;;;;;8.39;70.07;102309.97;5000397;28;20050;-82
2022/01/28 12:36:21;;;;;;;26.33;23.48;;;;;;;6.94;69.92;102046.06;5000487;28;20500;-82
2022/01/28 12:38:59;;;;;;;33.15;25.15;;;;;;;8.54;70.24;102311.84;4989950;28;20093;-82
2022/01/28 12:41:26;;;;;;;31.63;24.10;;;;;;;8.16;69.59;102250.31;4980664;28;20145;-82
2022/01/28 12:43:53;;;;;;;34.65;24.17;;;;;;;8.43;70.18;102287.72;4966813;28;20074;-84
2022/01/28 12:46:22;;;;;;;29.45;23.13;;;;;;;8.48;70.13;102292.78;4967528;28;20051;-84
2022/01/28 12:48:52;;;;;;;28.33;23.20;;;;;;;8.64;70.17;102313.97;4982162;28;20086;-82
2022/01/28 12:51:21;;;;;;;28.83;23.30;;;;;;;8.23;70.23;102243.78;4982938;28;20053;-84
2022/01/28 12:53:57;;;;;;;26.95;22.02;;;;;;;8.34;69.74;102241.41;4982766;28;20198;-83
2022/01/28 12:56:32;;;;;;;25.83;22.38;;;;;;;8.64;70.05;102256.63;4982065;28;20145;-82
2022/01/28 12:58:59;;;;;;;23.70;19.70;;;;;;;8.74;69.77;102252.53;4981214;28;20138;-83
2022/01/28 13:01:27;;;;;;;20.63;18.42;;;;;;;9.12;68.77;102299.00;4981149;28;20058;-83